Time;durP1;ratioP1;P1;durP2;ratioP2;P2;SDS_P1;SDS_P2;PMS_P1;PMS_P2;Temp;Humidity;BMP_temperature;BMP_pressure;BME280_temperature;BME280_humidity;BME280_pressure;Samples;Min_cycle;Max_cycle;Signal;HPM_P1;HPM_P2
2021/09/02 00:02:01;;;;;;;10.48;6.00;;;;;;;13.14;98.37;102098.59;4944887;28;20121;-83
2021/09/02 00:04:32;;;;;;;11.30;7.57;;;;;;;13.11;98.86;102093.34;4961069;28;20056;-82
2021/09/02 00:06:59;;;;;;;8.13;6.25;;;;;;;13.11;99.02;102096.84;4962602;28;20088;-83
2021/09/02 00:09:27;;;;;;;15.75;8.05;;;;;;;13.10;99.15;102097.69;4960341;28;20670;-88
2021/09/02 00:11:53;;;;;;;13.75;8.45;;;;;;;13.08;99.63;102091.59;4977125;28;20102;-86
2021/09/02 00:14:20;;;;;;;11.07;7.15;;;;;;;13.05;99.62;102089.81;4958673;28;20051;-85
2021/09/02 00:16:49;;;;;;;12.50;7.20;;;;;;;13.02;99.91;102089.81;4959887;28;20058;-84
2021/09/02 00:19:16;;;;;;;17.15;7.85;;;;;;;12.99;99.79;102096.81;4961766;28;20074;-85
2021/09/02 00:21:43;;;;;;;13.50;7.85;;;;;;;12.95;100.00;102090.66;4944560;28;20113;-85
2021/09/02 00:24:09;;;;;;;13.95;7.90;;;;;;;12.91;100.00;102087.13;4945466;28;20051;-88
2021/09/02 00:26:36;;;;;;;13.02;8.10;;;;;;;12.88;100.00;102088.84;4959145;28;20407;-87
2021/09/02 00:29:03;;;;;;;15.80;7.85;;;;;;;12.84;100.00;102093.25;4946993;28;20458;-84
2021/09/02 00:31:32;;;;;;;13.55;6.93;;;;;;;12.83;100.00;102094.09;4962478;28;20105;-82
2021/09/02 00:33:59;;;;;;;12.27;8.35;;;;;;;12.79;100.00;102094.06;4943268;28;20748;-87
2021/09/02 00:36:26;;;;;;;11.25;6.93;;;;;;;12.76;100.00;102091.44;4961079;28;20101;-86
2021/09/02 00:38:53;;;;;;;11.98;8.07;;;;;;;12.72;100.00;102099.31;4956994;28;20113;-87
2021/09/02 00:41:19;;;;;;;19.02;8.45;;;;;;;12.70;100.00;102097.53;4945745;28;20117;-85
2021/09/02 00:43:47;;;;;;;10.52;7.30;;;;;;;12.66;100.00;102099.28;4958776;28;20058;-83
2021/09/02 00:46:15;;;;;;;12.82;7.90;;;;;;;12.62;100.00;102094.88;4957572;28;20109;-84
2021/09/02 00:48:46;;;;;;;15.88;8.48;;;;;;;12.60;100.00;102093.09;4958231;28;20068;-82
2021/09/02 00:51:16;;;;;;;13.70;7.45;;;;;;;12.58;100.00;102093.97;4957409;28;20055;-85
2021/09/02 00:53:52;;;;;;;13.38;8.65;;;;;;;12.56;100.00;102092.19;4946889;28;20038;-89
2021/09/02 00:56:25;;;;;;;9.98;7.03;;;;;;;12.53;100.00;102087.81;4957540;28;20089;-84
2021/09/02 00:58:52;;;;;;;11.93;8.13;;;;;;;12.50;100.00;102089.53;4948730;28;21000;-86
2021/09/02 01:01:19;;;;;;;17.15;8.27;;;;;;;12.47;100.00;102087.75;4945843;28;20422;-82
2021/09/02 01:03:46;;;;;;;16.88;8.45;;;;;;;12.46;100.00;102083.38;4962452;28;20054;-81
2021/09/02 01:06:15;;;;;;;15.75;9.10;;;;;;;12.44;100.00;102086.84;4947324;28;20502;-85
2021/09/02 01:08:42;;;;;;;13.02;7.53;;;;;;;12.38;100.00;102077.22;4958535;28;21104;-85
2021/09/02 01:11:08;;;;;;;11.98;7.88;;;;;;;12.34;100.00;102080.69;4960487;28;20068;-83
2021/09/02 01:13:35;;;;;;;16.85;8.68;;;;;;;12.30;100.00;102085.03;4944755;28;20058;-86
2021/09/02 01:16:01;;;;;;;11.40;8.05;;;;;;;12.27;100.00;102085.03;4956828;28;20050;-86
2021/09/02 01:18:28;;;;;;;12.85;7.47;;;;;;;12.21;100.00;102080.59;4945087;28;20042;-86
2021/09/02 01:20:55;;;;;;;15.88;8.73;;;;;;;12.19;100.00;102090.22;4957902;28;20734;-86
2021/09/02 01:23:24;;;;;;;18.52;9.45;;;;;;;12.16;100.00;102090.22;4959686;28;20168;-84
2021/09/02 01:25:51;;;;;;;23.88;9.73;;;;;;;12.14;100.00;102089.31;4943289;28;20039;-87
2021/09/02 01:28:18;;;;;;;15.27;9.13;;;;;;;12.13;100.00;102091.91;4956557;28;20054;-85
2021/09/02 01:30:45;;;;;;;12.35;8.55;;;;;;;12.12;100.00;102091.03;4958608;28;20142;-82
2021/09/02 01:33:17;;;;;;;15.98;8.07;;;;;;;12.12;100.00;102092.78;4942907;28;20109;-87
2021/09/02 01:35:46;;;;;;;18.95;9.35;;;;;;;12.08;100.00;102095.41;4957689;28;20058;-84
2021/09/02 01:38:13;;;;;;;13.60;8.27;;;;;;;12.07;100.00;102093.63;4960263;28;20042;-85
2021/09/02 01:40:47;;;;;;;12.23;8.57;;;;;;;12.06;100.00;102093.63;4940738;28;20154;-84
2021/09/02 01:43:16;;;;;;;15.88;9.50;;;;;;;12.05;100.00;102097.97;4976358;28;20051;-85
2021/09/02 01:45:44;;;;;;;15.13;9.48;;;;;;;12.03;100.00;102099.72;4969954;28;20494;-83
2021/09/02 01:48:11;;;;;;;18.15;9.18;;;;;;;12.02;100.00;102099.69;4944204;28;20133;-80
2021/09/02 01:50:42;;;;;;;18.63;8.70;;;;;;;12.01;100.00;102105.81;4942364;28;20713;-83
2021/09/02 01:53:13;;;;;;;13.85;9.23;;;;;;;12.00;100.00;102104.06;4929934;28;20078;-80
2021/09/02 01:55:40;;;;;;;19.20;8.90;;;;;;;11.99;100.00;102104.91;4942578;28;20047;-88
2021/09/02 01:58:08;;;;;;;14.23;8.68;;;;;;;11.97;100.00;102107.53;4953280;28;20062;-81
2021/09/02 02:00:36;;;;;;;13.02;9.15;;;;;;;11.97;100.00;102107.53;4946601;28;20058;-86
2021/09/02 02:03:03;;;;;;;12.57;8.85;;;;;;;11.97;100.00;102104.00;4958538;28;20055;-81
2021/09/02 02:05:32;;;;;;;16.25;9.23;;;;;;;11.94;100.00;102104.84;4978288;28;20058;-86
2021/09/02 02:07:59;;;;;;;19.95;10.15;;;;;;;11.93;100.00;102100.47;4945069;28;20249;-83
2021/09/02 02:10:27;;;;;;;23.13;10.25;;;;;;;11.91;100.00;102102.19;4948056;28;20065;-81
2021/09/02 02:13:00;;;;;;;12.48;9.18;;;;;;;11.90;100.00;102108.31;4964207;28;20050;-86
2021/09/02 02:15:28;;;;;;;16.43;9.90;;;;;;;11.94;100.00;102114.47;4949313;28;20069;-87
2021/09/02 02:17:56;;;;;;;19.27;10.63;;;;;;;11.97;100.00;102106.63;4973812;28;20053;-86
2021/09/02 02:20:23;;;;;;;14.88;9.90;;;;;;;12.02;100.00;102108.47;4961560;28;21412;-82
2021/09/02 02:22:50;;;;;;;15.38;9.48;;;;;;;12.08;100.00;102102.38;4950106;28;20057;-86
2021/09/02 02:25:17;;;;;;;13.07;9.55;;;;;;;12.14;100.00;102104.19;4943389;28;20055;-84
2021/09/02 02:27:47;;;;;;;19.65;11.55;;;;;;;12.20;100.00;102101.59;4947199;28;20142;-80
2021/09/02 02:30:18;;;;;;;16.45;10.40;;;;;;;12.27;100.00;102103.41;4949251;28;20121;-83
2021/09/02 02:32:46;;;;;;;18.00;11.25;;;;;;;12.36;100.00;102102.59;4976884;28;20093;-87
2021/09/02 02:35:15;;;;;;;14.07;9.43;;;;;;;12.45;100.00;102099.13;4962575;28;20043;-82
2021/09/02 02:37:42;;;;;;;13.85;9.50;;;;;;;12.56;100.00;102100.94;4950300;28;20054;-82
2021/09/02 02:40:11;;;;;;;16.98;10.60;;;;;;;12.68;100.00;102100.13;4963312;28;20070;-86
2021/09/02 02:42:42;;;;;;;16.65;10.40;;;;;;;12.79;100.00;102109.84;4960685;28;20053;-81
2021/09/02 02:45:10;;;;;;;15.57;11.13;;;;;;;12.88;100.00;102104.63;4946884;28;20472;-86
2021/09/02 02:47:37;;;;;;;24.15;11.15;;;;;;;12.97;100.00;102103.78;4945564;28;20105;-85
2021/09/02 02:50:05;;;;;;;14.57;10.10;;;;;;;13.06;100.00;102099.47;4960485;28;20062;-81
2021/09/02 02:52:32;;;;;;;22.77;10.18;;;;;;;13.13;100.00;102104.72;4964854;28;20058;-83
2021/09/02 02:54:59;;;;;;;13.95;9.18;;;;;;;13.19;100.00;102099.50;4956231;28;22359;-83
2021/09/02 02:57:25;;;;;;;16.00;10.93;;;;;;;13.24;100.00;102098.66;4964722;28;20130;-86
2021/09/02 02:59:52;;;;;;;15.60;10.52;;;;;;;13.31;100.00;102093.41;4965461;28;20031;-84
2021/09/02 03:02:19;;;;;;;15.82;8.95;;;;;;;13.35;100.00;102092.53;4945721;28;20492;-84
2021/09/02 03:04:45;;;;;;;15.25;9.43;;;;;;;13.38;100.00;102090.81;4963232;28;20047;-86
2021/09/02 03:07:14;;;;;;;13.13;8.75;;;;;;;13.39;100.00;102087.31;4946834;28;20078;-86
2021/09/02 03:09:41;;;;;;;17.10;10.18;;;;;;;13.40;100.00;102083.81;4976156;28;20038;-86
2021/09/02 03:12:08;;;;;;;16.55;9.52;;;;;;;13.42;100.00;102075.06;4948925;28;20133;-82
2021/09/02 03:14:35;;;;;;;17.48;8.35;;;;;;;13.45;100.00;102075.91;4942710;28;20069;-83
2021/09/02 03:17:01;;;;;;;16.05;9.82;;;;;;;13.49;100.00;102075.06;4948280;28;20047;-83
2021/09/02 03:19:28;;;;;;;15.23;9.85;;;;;;;13.52;100.00;102079.47;4960543;28;20042;-86
2021/09/02 03:21:55;;;;;;;13.48;9.77;;;;;;;13.56;100.00;102081.22;4964364;28;20414;-86
2021/09/02 03:24:21;;;;;;;12.57;8.23;;;;;;;13.59;99.92;102083.84;4947220;28;20050;-85
2021/09/02 03:26:48;;;;;;;29.15;10.75;;;;;;;13.61;99.62;102083.84;4959297;28;20077;-83
2021/09/02 03:29:17;;;;;;;15.70;9.98;;;;;;;13.60;99.73;102079.44;4947633;28;20094;-87
2021/09/02 03:31:44;;;;;;;15.98;8.65;;;;;;;13.57;99.65;102082.97;4942959;28;20337;-85
2021/09/02 03:34:10;;;;;;;16.92;9.48;;;;;;;13.62;99.93;102088.25;4964176;28;20525;-82
2021/09/02 03:36:37;;;;;;;16.10;9.88;;;;;;;13.64;99.61;102090.00;4963077;28;20047;-83
2021/09/02 03:39:03;;;;;;;13.68;9.43;;;;;;;13.67;99.64;102089.13;4945654;28;20054;-83
2021/09/02 03:41:30;;;;;;;14.20;9.45;;;;;;;13.69;99.58;102092.66;4964683;28;20051;-86
2021/09/02 03:43:56;;;;;;;17.10;9.38;;;;;;;13.71;99.44;102086.50;4976458;28;20568;-85
2021/09/02 03:46:23;;;;;;;15.10;9.93;;;;;;;13.75;99.67;102089.13;4962924;28;20046;-84
2021/09/02 03:48:50;;;;;;;15.93;9.63;;;;;;;13.77;99.38;102083.00;4947673;28;20047;-82
2021/09/02 03:51:17;;;;;;;20.15;9.15;;;;;;;13.81;99.12;102090.00;4959826;28;20070;-85
2021/09/02 03:53:46;;;;;;;21.85;11.00;;;;;;;13.82;99.05;102080.34;4950119;28;20047;-81
2021/09/02 03:56:13;;;;;;;20.35;9.98;;;;;;;13.83;98.74;102087.38;4963554;28;20060;-87
2021/09/02 03:58:40;;;;;;;31.65;12.45;;;;;;;13.83;98.60;102082.09;4962859;28;20047;-84
2021/09/02 04:01:06;;;;;;;20.83;10.75;;;;;;;13.82;98.68;102081.25;4943324;28;20634;-86
2021/09/02 04:03:33;;;;;;;26.83;12.27;;;;;;;13.80;99.16;102079.50;4965385;28;20054;-85
2021/09/02 04:05:59;;;;;;;14.23;9.38;;;;;;;13.78;99.05;102092.66;4945024;28;20101;-87
2021/09/02 04:08:26;;;;;;;21.20;10.80;;;;;;;13.78;99.07;102084.75;4961752;28;20051;-81
2021/09/02 04:10:53;;;;;;;19.60;10.50;;;;;;;13.79;98.78;102091.75;4962458;28;20936;-86
2021/09/02 04:13:19;;;;;;;18.83;11.05;;;;;;;13.76;99.16;102091.75;4959166;28;20046;-83
2021/09/02 04:15:46;;;;;;;17.20;10.50;;;;;;;13.75;98.98;102097.03;4952890;28;20138;-87
2021/09/02 04:18:13;;;;;;;14.77;9.93;;;;;;;13.75;98.97;102097.03;4941318;28;20050;-82
2021/09/02 04:20:39;;;;;;;22.23;12.13;;;;;;;13.73;99.16;102105.78;4960993;28;20089;-84
2021/09/02 04:23:09;;;;;;;16.95;11.02;;;;;;;13.70;99.35;102102.28;4946243;28;20047;-85
2021/09/02 04:25:36;;;;;;;21.08;10.88;;;;;;;13.67;99.20;102097.88;4953046;28;20162;-84
2021/09/02 04:28:03;;;;;;;19.05;10.55;;;;;;;13.64;99.48;102094.41;4942405;28;20081;-86
2021/09/02 04:30:30;;;;;;;25.23;12.65;;;;;;;13.64;99.56;102097.03;4955530;28;20046;-86
2021/09/02 04:32:56;;;;;;;17.25;10.15;;;;;;;13.65;99.70;102104.00;4959814;28;20043;-85
2021/09/02 04:35:23;;;;;;;21.10;11.15;;;;;;;13.68;99.48;102099.66;4942803;28;20125;-83
2021/09/02 04:37:50;;;;;;;21.45;12.05;;;;;;;13.71;99.51;102096.13;4957200;28;20430;-85
2021/09/02 04:40:17;;;;;;;15.30;9.82;;;;;;;13.72;99.30;102104.03;4957735;28;20077;-86
2021/09/02 04:42:44;;;;;;;22.17;11.18;;;;;;;13.74;98.93;102101.44;4937740;28;20053;-85
2021/09/02 04:45:12;;;;;;;20.15;10.85;;;;;;;13.75;99.14;102097.91;4966338;28;20058;-86
2021/09/02 04:47:45;;;;;;;18.00;10.43;;;;;;;13.80;98.87;102103.19;4938575;28;20081;-82
2021/09/02 04:50:16;;;;;;;18.50;11.40;;;;;;;13.83;98.75;102100.53;4955591;28;20109;-83
2021/09/02 04:52:42;;;;;;;18.73;11.05;;;;;;;13.86;98.41;102103.19;4938494;28;20327;-85
2021/09/02 04:55:11;;;;;;;16.45;11.60;;;;;;;13.88;98.48;102104.06;4953352;28;20050;-84
2021/09/02 04:57:38;;;;;;;19.63;11.55;;;;;;;13.89;98.31;102111.06;4958947;28;20042;-83
2021/09/02 05:00:07;;;;;;;16.25;11.45;;;;;;;13.88;98.19;102112.84;4937251;28;20051;-83
2021/09/02 05:02:35;;;;;;;18.40;10.60;;;;;;;13.89;98.41;102113.72;4939697;28;20058;-84
2021/09/02 05:05:02;;;;;;;14.90;9.65;;;;;;;13.87;98.33;102115.44;4957156;28;20051;-82
2021/09/02 05:07:32;;;;;;;22.67;11.48;;;;;;;13.85;98.64;102111.97;4951372;28;20605;-87
2021/09/02 05:09:59;;;;;;;21.25;11.38;;;;;;;13.86;98.33;102111.94;4959041;28;20510;-86
2021/09/02 05:12:25;;;;;;;16.17;10.55;;;;;;;13.89;98.38;102108.44;4951735;28;20305;-86
2021/09/02 05:14:52;;;;;;;16.15;10.70;;;;;;;13.91;98.43;102111.97;4956759;28;22933;-85
2021/09/02 05:17:19;;;;;;;19.13;11.10;;;;;;;13.92;98.47;102113.69;4956037;28;20046;-85
2021/09/02 05:19:48;;;;;;;18.27;11.00;;;;;;;13.93;98.44;102115.47;4954310;28;20042;-88
2021/09/02 05:22:15;;;;;;;15.25;10.65;;;;;;;13.99;98.32;102115.47;4953984;28;20543;-87
2021/09/02 05:24:45;;;;;;;20.55;11.75;;;;;;;14.04;97.78;102111.09;4950498;28;20616;-82
2021/09/02 05:27:12;;;;;;;17.48;10.43;;;;;;;14.07;97.67;102116.34;4955412;28;20082;-84
2021/09/02 05:29:38;;;;;;;18.63;10.95;;;;;;;14.07;97.58;102115.47;4957537;28;20042;-85
2021/09/02 05:32:05;;;;;;;18.33;11.10;;;;;;;14.04;97.51;102123.34;4933031;28;20050;-85
2021/09/02 05:34:35;;;;;;;21.33;12.00;;;;;;;13.95;97.64;102126.88;4942498;28;22180;-85
2021/09/02 05:37:01;;;;;;;20.58;12.13;;;;;;;13.83;98.47;102124.22;4954134;28;20116;-86
2021/09/02 05:39:28;;;;;;;20.40;10.23;;;;;;;13.74;98.74;102127.75;4957369;28;20557;-83
2021/09/02 05:41:56;;;;;;;22.63;11.80;;;;;;;13.69;99.54;102124.22;4942831;28;20054;-82
2021/09/02 05:44:23;;;;;;;22.50;11.60;;;;;;;13.68;99.51;102125.97;4946729;28;20050;-85
2021/09/02 05:46:51;;;;;;;29.63;14.15;;;;;;;13.68;99.96;102127.72;4956659;28;20097;-88
2021/09/02 05:49:18;;;;;;;28.55;13.75;;;;;;;13.69;99.82;102130.34;4957728;28;20651;-83
2021/09/02 05:51:45;;;;;;;26.65;14.05;;;;;;;13.72;99.98;102130.34;4959063;28;20047;-84
2021/09/02 05:54:12;;;;;;;27.65;14.43;;;;;;;13.78;99.72;102128.59;4957418;28;20051;-87
2021/09/02 05:56:39;;;;;;;27.63;14.48;;;;;;;13.84;99.65;102128.63;4955344;28;20055;-83
2021/09/02 05:59:05;;;;;;;18.45;12.05;;;;;;;13.91;99.22;102127.75;4940573;28;20043;-88
2021/09/02 06:01:32;;;;;;;25.70;13.30;;;;;;;13.90;99.16;102137.41;4952146;28;20185;-85
2021/09/02 06:03:58;;;;;;;21.13;12.68;;;;;;;13.87;98.89;102128.59;4939290;28;20066;-86
2021/09/02 06:06:26;;;;;;;22.88;12.88;;;;;;;13.84;99.19;102131.25;4953946;28;20593;-86
2021/09/02 06:08:52;;;;;;;21.58;11.80;;;;;;;13.80;99.22;102127.72;4941248;28;20712;-87
2021/09/02 06:11:19;;;;;;;19.08;11.77;;;;;;;13.77;99.60;102129.50;4957615;28;20066;-87
2021/09/02 06:13:46;;;;;;;21.92;12.93;;;;;;;13.77;99.66;102129.50;4939704;28;20054;-87
2021/09/02 06:16:15;;;;;;;16.70;12.15;;;;;;;13.76;99.91;102125.97;4941569;28;20054;-87
2021/09/02 06:18:41;;;;;;;25.17;13.35;;;;;;;13.77;99.99;102134.78;4955403;28;20046;-86
2021/09/02 06:21:08;;;;;;;22.42;12.43;;;;;;;13.81;100.00;102129.50;4942190;28;20073;-86
2021/09/02 06:23:37;;;;;;;17.38;12.27;;;;;;;13.87;99.72;102128.59;4956620;28;20142;-85
2021/09/02 06:26:04;;;;;;;23.02;12.32;;;;;;;13.93;100.00;102133.03;4939197;28;20065;-85
2021/09/02 06:28:31;;;;;;;29.20;13.10;;;;;;;14.01;99.69;102137.41;4956105;28;20050;-85
2021/09/02 06:31:00;;;;;;;26.73;12.98;;;;;;;14.08;99.61;102127.78;4953969;28;20046;-88
2021/09/02 06:33:27;;;;;;;19.33;11.80;;;;;;;14.18;99.16;102124.25;4941015;28;20113;-85
2021/09/02 06:35:54;;;;;;;28.38;12.82;;;;;;;14.34;98.85;102119.84;4954728;28;20117;-86
2021/09/02 06:38:21;;;;;;;18.65;9.95;;;;;;;14.60;98.09;102123.31;4952385;28;20529;-87
2021/09/02 06:40:48;;;;;;;20.40;9.77;;;;;;;14.89;97.28;102124.13;4957445;28;20511;-83
2021/09/02 06:43:14;;;;;;;18.48;9.70;;;;;;;15.24;96.34;102121.34;4954502;28;20066;-83
2021/09/02 06:45:41;;;;;;;15.25;9.27;;;;;;;15.54;95.16;102123.84;4940057;28;20046;-87
2021/09/02 06:48:08;;;;;;;16.20;9.38;;;;;;;15.88;94.03;102117.50;4958752;28;20051;-86
2021/09/02 06:50:34;;;;;;;14.30;9.48;;;;;;;16.23;92.59;102126.00;4958866;28;20049;-87
2021/09/02 06:53:01;;;;;;;14.43;7.03;;;;;;;16.51;91.33;102119.56;4960825;28;20069;-88
2021/09/02 06:55:28;;;;;;;11.70;7.03;;;;;;;16.80;89.95;102109.56;4957559;28;20061;-87
2021/09/02 06:57:54;;;;;;;13.38;6.28;;;;;;;17.11;88.46;102119.81;4960830;28;20051;-87
2021/09/02 07:00:21;;;;;;;10.57;6.65;;;;;;;17.37;87.30;102122.09;4946166;28;20043;-83
2021/09/02 07:02:48;;;;;;;13.35;7.30;;;;;;;17.61;85.97;102115.59;4946414;28;20057;-83
2021/09/02 07:05:16;;;;;;;12.65;6.90;;;;;;;17.90;84.46;102111.59;4958820;28;20055;-82
2021/09/02 07:07:42;;;;;;;9.10;5.20;;;;;;;18.10;82.87;102115.72;4956472;28;20089;-83
2021/09/02 07:10:10;;;;;;;16.40;6.43;;;;;;;18.31;81.33;102109.16;4946911;28;20051;-86
2021/09/02 07:12:37;;;;;;;12.68;6.13;;;;;;;18.52;80.29;102114.09;4959581;28;20518;-87
2021/09/02 07:15:05;;;;;;;11.55;6.88;;;;;;;18.74;79.36;102126.06;4944083;28;20597;-83
2021/09/02 07:17:31;;;;;;;15.05;7.90;;;;;;;18.98;76.35;102124.69;4960505;28;20046;-83
2021/09/02 07:19:59;;;;;;;13.10;7.70;;;;;;;19.20;76.23;102126.91;4958373;28;20070;-87
2021/09/02 07:22:26;;;;;;;16.55;7.30;;;;;;;19.41;74.97;102122.91;4961358;28;20098;-85
2021/09/02 07:24:53;;;;;;;11.77;6.55;;;;;;;19.70;73.70;102127.56;4944705;28;20418;-84
2021/09/02 07:27:20;;;;;;;13.05;5.82;;;;;;;19.74;71.68;102120.38;4945070;28;20038;-83
2021/09/02 07:29:46;;;;;;;14.32;6.43;;;;;;;19.75;71.90;102124.75;4960495;28;20569;-87
2021/09/02 07:32:13;;;;;;;14.68;6.40;;;;;;;19.66;71.47;102131.19;4963711;28;20050;-83
2021/09/02 07:34:39;;;;;;;8.18;5.28;;;;;;;19.60;71.14;102129.53;4965856;28;20058;-83
2021/09/02 07:37:06;;;;;;;10.77;6.20;;;;;;;19.60;70.86;102139.31;4972786;28;20121;-81
2021/09/02 07:39:33;;;;;;;12.68;5.47;;;;;;;19.73;70.61;102135.44;4961780;28;21375;-87
2021/09/02 07:42:00;;;;;;;8.98;5.05;;;;;;;19.88;69.64;102141.31;4962589;28;20109;-87
2021/09/02 07:44:26;;;;;;;10.80;5.55;;;;;;;19.99;68.85;102148.13;4961839;28;20114;-86
2021/09/02 07:46:53;;;;;;;10.70;4.78;;;;;;;20.10;67.97;102150.53;4961621;28;20175;-82
2021/09/02 07:49:19;;;;;;;8.65;4.65;;;;;;;20.11;67.48;102154.91;4960368;28;20047;-87
2021/09/02 07:51:46;;;;;;;10.98;5.18;;;;;;;20.08;67.29;102151.47;4959676;28;20055;-83
2021/09/02 07:54:13;;;;;;;15.38;5.93;;;;;;;20.04;66.76;102155.09;4961750;28;20058;-84
2021/09/02 07:56:39;;;;;;;11.30;5.63;;;;;;;19.78;67.26;102148.63;4945810;28;20054;-86
2021/09/02 07:59:06;;;;;;;8.48;4.28;;;;;;;19.70;67.70;102156.78;4944707;28;20105;-87
2021/09/02 08:01:33;;;;;;;12.38;5.03;;;;;;;19.90;66.78;102160.78;4972316;28;20047;-87
2021/09/02 08:04:00;;;;;;;12.90;4.47;;;;;;;20.28;65.28;102169.59;4962517;28;20081;-88
2021/09/02 08:06:26;;;;;;;10.32;4.82;;;;;;;20.66;63.35;102165.03;4961280;28;20058;-87
2021/09/02 08:08:53;;;;;;;7.78;4.38;;;;;;;20.95;62.36;102155.38;4956693;28;20056;-84
2021/09/02 08:11:20;;;;;;;8.90;4.70;;;;;;;21.13;61.55;102165.53;4945995;28;20170;-87
2021/09/02 08:13:46;;;;;;;8.48;4.43;;;;;;;21.08;61.23;102170.09;4957216;28;20054;-86
2021/09/02 08:16:13;;;;;;;16.30;5.88;;;;;;;21.00;61.39;102158.78;4960789;28;20130;-83
2021/09/02 08:18:40;;;;;;;13.15;5.00;;;;;;;20.96;61.04;102167.78;4958688;28;20183;-88
2021/09/02 08:21:10;;;;;;;5.18;3.72;;;;;;;20.86;61.05;102168.97;4956715;28;20058;-83
2021/09/02 08:23:36;;;;;;;9.45;5.03;;;;;;;20.72;61.46;102169.38;4961893;28;20053;-86
2021/09/02 08:26:03;;;;;;;8.18;5.10;;;;;;;20.67;61.76;102161.47;4954582;28;20510;-84
2021/09/02 08:28:30;;;;;;;7.60;5.07;;;;;;;20.69;61.38;102170.28;4942428;28;20133;-82
2021/09/02 08:30:56;;;;;;;10.15;5.32;;;;;;;20.75;61.23;102167.47;4959225;28;20074;-86
2021/09/02 08:33:24;;;;;;;14.15;5.03;;;;;;;20.80;60.88;102168.22;4957914;28;20757;-84
2021/09/02 08:35:58;;;;;;;11.60;5.82;;;;;;;20.92;60.28;102166.13;4961965;28;20121;-84
2021/09/02 08:38:24;;;;;;;12.43;6.13;;;;;;;21.06;59.67;102171.06;4939385;28;20078;-81
2021/09/02 08:40:51;;;;;;;6.88;5.10;;;;;;;21.28;58.65;102164.19;4942705;28;20090;-88
2021/09/02 08:43:18;;;;;;;11.48;5.43;;;;;;;21.57;57.80;102172.25;4943432;28;20054;-83
2021/09/02 08:45:48;;;;;;;9.23;5.20;;;;;;;21.71;57.22;102170.03;4942123;28;20062;-88
2021/09/02 08:48:15;;;;;;;7.93;5.10;;;;;;;21.81;56.89;102174.13;4960151;28;20042;-82
2021/09/02 08:50:42;;;;;;;15.55;8.43;;;;;;;21.81;56.18;102175.91;4958929;28;20050;-84
2021/09/02 08:53:09;;;;;;;11.90;7.05;;;;;;;21.72;56.40;102166.44;4959845;28;20046;-85
2021/09/02 08:55:36;;;;;;;10.48;7.03;;;;;;;21.64;56.33;102176.44;4957773;28;20518;-85
2021/09/02 08:58:04;;;;;;;10.23;8.60;;;;;;;21.54;56.56;102175.88;4954537;28;20474;-88
2021/09/02 09:00:33;;;;;;;12.45;8.73;;;;;;;21.18;56.85;102178.69;4942248;28;22112;-82
2021/09/02 09:03:06;;;;;;;17.90;12.68;;;;;;;21.01;57.87;102176.50;4959771;28;20569;-87
2021/09/02 09:05:36;;;;;;;11.68;9.45;;;;;;;20.93;58.44;102179.38;4960285;28;20982;-86
2021/09/02 09:08:10;;;;;;;17.17;10.43;;;;;;;20.86;57.41;102168.97;4971337;28;20047;-87
2021/09/02 09:10:36;;;;;;;17.73;8.90;;;;;;;20.73;58.69;102179.97;4944690;28;21445;-85
2021/09/02 09:13:05;;;;;;;15.85;10.43;;;;;;;20.75;58.30;102171.94;4958544;28;20070;-85
2021/09/02 09:15:36;;;;;;;14.38;9.50;;;;;;;20.75;58.38;102185.22;4940794;28;20109;-86
2021/09/02 09:18:26;;;;;;;15.10;10.52;;;;;;;20.86;58.05;102183.16;4939630;28;20050;-81
2021/09/02 09:21:13;;;;;;;13.55;8.85;;;;;;;20.87;57.94;102182.25;4943467;28;20051;-86
2021/09/02 09:24:04;;;;;;;9.05;7.35;;;;;;;20.96;57.53;102179.31;4960189;28;20054;-84
2021/09/02 09:26:33;;;;;;;12.65;9.50;;;;;;;21.29;57.11;102181.91;4961609;28;20058;-85
2021/09/02 09:29:18;;;;;;;16.10;10.13;;;;;;;21.87;55.73;102177.53;4961837;28;20050;-90
2021/09/02 09:31:44;;;;;;;13.68;8.10;;;;;;;22.28;54.49;102183.28;4958484;28;20047;-85
2021/09/02 09:34:22;;;;;;;10.13;8.02;;;;;;;22.57;53.93;102179.66;4960958;28;20117;-84
2021/09/02 09:37:12;;;;;;;13.57;8.70;;;;;;;22.79;53.41;102177.06;4949919;28;20141;-85
2021/09/02 09:39:43;;;;;;;11.10;7.07;;;;;;;22.92;52.83;102171.31;4943179;28;20039;-87
2021/09/02 09:42:17;;;;;;;10.25;5.75;;;;;;;22.85;52.37;102172.44;4943501;28;20050;-82
2021/09/02 09:44:44;;;;;;;10.93;6.07;;;;;;;22.75;52.64;102186.13;4944184;28;20406;-88
2021/09/02 09:47:17;;;;;;;11.35;6.68;;;;;;;22.66;52.88;102185.56;4959086;28;20159;-83
2021/09/02 09:49:58;;;;;;;11.38;7.05;;;;;;;22.53;52.52;102180.69;4942660;28;20882;-86
2021/09/02 09:52:35;;;;;;;10.82;5.85;;;;;;;22.39;53.30;102180.28;4957226;28;20054;-87
2021/09/02 09:55:11;;;;;;;9.23;5.97;;;;;;;22.39;53.33;102180.28;4954835;28;21196;-86
2021/09/02 09:57:40;;;;;;;10.75;5.25;;;;;;;22.65;52.52;102181.19;4957321;28;20054;-83
2021/09/02 10:00:17;;;;;;;10.05;6.03;;;;;;;22.67;52.45;102176.66;4956148;28;20053;-84
2021/09/02 10:02:47;;;;;;;10.10;5.82;;;;;;;22.47;52.92;102178.22;4917536;28;21335;-87
2021/09/02 10:05:16;;;;;;;7.80;5.57;;;;;;;22.28;53.48;102170.81;4943798;28;20051;-87
2021/09/02 10:07:48;;;;;;;11.50;4.70;;;;;;;22.11;53.72;102174.06;4956585;28;20070;-88
2021/09/02 10:10:22;;;;;;;9.35;5.60;;;;;;;21.90;54.62;102175.66;4960310;28;22318;-89
2021/09/02 10:12:49;;;;;;;9.73;5.40;;;;;;;21.75;54.97;102176.13;4942196;28;20042;-87
2021/09/02 10:15:19;;;;;;;10.57;6.68;;;;;;;21.57;55.13;102175.78;4955839;28;20051;-87
2021/09/02 10:17:47;;;;;;;8.77;5.20;;;;;;;21.35;55.86;102164.88;4972835;28;20078;-83
2021/09/02 10:20:19;;;;;;;10.73;5.65;;;;;;;21.32;56.00;102156.97;4940420;28;20666;-84
2021/09/02 10:22:48;;;;;;;8.45;5.45;;;;;;;21.43;55.65;102164.63;4942179;28;20133;-85
2021/09/02 10:25:38;;;;;;;9.52;5.53;;;;;;;21.64;55.32;102156.03;4940338;28;20043;-85
2021/09/02 10:28:12;;;;;;;16.08;5.68;;;;;;;21.75;54.70;102154.81;4962657;28;20054;-82
2021/09/02 10:30:43;;;;;;;11.55;5.43;;;;;;;21.70;54.63;102162.94;4957635;28;20165;-84
2021/09/02 10:33:48;;;;;;;7.20;5.05;;;;;;;21.75;54.60;102160.13;4963303;28;20046;-87
2021/09/02 10:36:14;;;;;;;12.27;6.07;;;;;;;21.94;54.53;102155.06;4962788;28;20042;-82
2021/09/02 10:38:45;;;;;;;12.57;5.07;;;;;;;22.06;54.08;102154.66;4974494;28;20058;-84
2021/09/02 10:41:14;;;;;;;13.18;5.28;;;;;;;22.33;53.59;102146.63;4961128;28;20063;-85
2021/09/02 10:43:55;;;;;;;10.95;5.43;;;;;;;22.53;53.13;102146.00;4960898;28;20053;-82
2021/09/02 10:46:45;;;;;;;11.25;5.63;;;;;;;22.78;52.29;102147.78;4963026;28;20160;-82
2021/09/02 10:49:18;;;;;;;7.53;5.43;;;;;;;22.97;51.99;102145.28;4956052;28;20057;-88
2021/09/02 10:51:51;;;;;;;;;;;;;;;23.05;51.71;102145.88;4963661;28;20078;-83
2021/09/02 10:54:22;;;;;;;9.02;5.25;;;;;;;23.39;51.23;102141.06;4945748;28;19930;-89
2021/09/02 10:57:12;;;;;;;9.13;4.88;;;;;;;24.90;48.38;102139.19;4944856;28;20134;-86
2021/09/02 10:59:43;;;;;;;13.13;6.00;;;;;;;25.85;45.52;102138.28;4949760;28;20932;-83
2021/09/02 11:02:30;;;;;;;7.88;4.65;;;;;;;26.04;44.31;102141.81;4969854;28;20070;-86
2021/09/02 11:05:02;;;;;;;7.03;4.90;;;;;;;26.41;41.12;102145.28;4968904;28;20058;-85
2021/09/02 11:07:57;;;;;;;9.88;5.32;;;;;;;28.03;40.39;102140.88;4971706;28;20133;-85
2021/09/02 11:10:35;;;;;;;7.53;4.65;;;;;;;29.98;36.57;102136.69;4959305;28;20035;-85
2021/09/02 11:13:12;;;;;;;9.65;4.80;;;;;;;31.45;34.34;102137.16;4972962;28;20046;-83
2021/09/02 11:16:19;;;;;;;6.88;4.82;;;;;;;32.68;32.55;102135.97;4975227;28;20038;-83
2021/09/02 11:18:57;;;;;;;20.48;15.60;;;;;;;33.82;30.16;102142.09;4977669;28;20058;-84
2021/09/02 11:21:36;;;;;;;5.95;4.97;;;;;;;34.48;29.23;102150.00;4977961;28;20050;-83
2021/09/02 11:24:16;;;;;;;9.13;5.43;;;;;;;35.16;27.26;102143.13;4963125;28;20051;-83